createdAt,value
2022-10-08T00:01:09.616Z,71.93
2022-10-08T00:03:38.831Z,74.88
2022-10-08T00:06:08.924Z,77.03
2022-10-08T00:08:38.543Z,89.30
2022-10-08T00:11:08.189Z,90.95
2022-10-08T00:13:41.617Z,95.80
2022-10-08T00:16:10.074Z,95.15
2022-10-08T00:18:37.660Z,91.60
2022-10-08T00:21:07.073Z,86.75
2022-10-08T00:23:35.207Z,83.35
2022-10-08T00:26:07.092Z,98.32
2022-10-08T00:28:35.663Z,107.75
2022-10-08T00:31:08.225Z,101.60
2022-10-08T00:33:37.051Z,98.57
2022-10-08T00:36:05.847Z,90.93
2022-10-08T00:38:33.620Z,91.65
2022-10-08T00:41:01.593Z,88.10
2022-10-08T00:43:43.845Z,77.60
2022-10-08T00:46:25.968Z,83.07
2022-10-08T00:49:01.728Z,82.15
2022-10-08T00:51:30.076Z,83.38
2022-10-08T00:53:57.647Z,94.93
2022-10-08T00:56:26.178Z,97.13
2022-10-08T00:58:54.214Z,94.93
2022-10-08T01:01:23.153Z,93.78
2022-10-08T01:03:50.722Z,91.18
2022-10-08T01:06:27.468Z,99.50
2022-10-08T01:09:01.022Z,95.78
2022-10-08T01:11:42.767Z,96.07
2022-10-08T01:14:22.890Z,76.30
2022-10-08T01:16:58.220Z,81.93
2022-10-08T01:19:57.622Z,75.85
2022-10-08T01:22:38.810Z,97.38
2022-10-08T01:25:32.977Z,72.53
2022-10-08T01:28:06.497Z,68.13
2022-10-08T01:30:38.223Z,66.80
2022-10-08T01:33:12.280Z,59.92
2022-10-08T01:35:44.688Z,68.95
2022-10-08T01:38:16.944Z,64.32
2022-10-08T01:40:47.729Z,91.97
2022-10-08T01:43:21.696Z,72.70
2022-10-08T01:45:57.324Z,73.63
2022-10-08T01:48:29.649Z,93.70
2022-10-08T01:51:03.353Z,81.68
2022-10-08T01:53:35.607Z,90.90
2022-10-08T01:56:06.221Z,91.22
2022-10-08T01:58:40.051Z,91.18
2022-10-08T02:01:12.882Z,107.82
2022-10-08T02:04:01.031Z,84.88
2022-10-08T02:06:31.293Z,78.80
2022-10-08T02:08:58.800Z,99.45
2022-10-08T02:11:26.384Z,78.40
2022-10-08T02:13:55.321Z,76.95
2022-10-08T02:16:29.616Z,73.18
2022-10-08T02:19:08.057Z,74.57
2022-10-08T02:21:39.187Z,81.28
2022-10-08T02:24:13.294Z,96.10
2022-10-08T02:26:45.441Z,79.20
2022-10-08T02:29:20.410Z,99.60
2022-10-08T02:31:50.791Z,78.30
2022-10-08T02:34:23.450Z,98.60
2022-10-08T02:36:57.694Z,85.07
2022-10-08T02:39:28.335Z,76.53
2022-10-08T02:42:00.439Z,106.97
2022-10-08T02:44:34.005Z,102.57
2022-10-08T02:47:07.001Z,86.15
2022-10-08T02:49:38.683Z,72.80
2022-10-08T02:52:09.047Z,67.00
2022-10-08T02:54:39.744Z,102.00
2022-10-08T02:57:15.732Z,68.72
2022-10-08T02:59:45.599Z,61.08
2022-10-08T03:02:21.040Z,62.13
2022-10-08T03:04:52.397Z,102.30
2022-10-08T03:07:22.915Z,83.18
2022-10-08T03:09:53.035Z,71.93
2022-10-08T03:12:20.956Z,83.28
2022-10-08T03:14:52.209Z,85.10
2022-10-08T03:17:23.652Z,98.70
2022-10-08T03:19:51.769Z,85.00
2022-10-08T03:22:19.408Z,79.18
2022-10-08T03:24:46.913Z,95.68
2022-10-08T03:27:14.594Z,91.47
2022-10-08T03:29:42.130Z,90.95
2022-10-08T03:32:10.997Z,109.00
2022-10-08T03:34:38.521Z,99.25
2022-10-08T03:37:06.068Z,95.45
2022-10-08T03:39:33.585Z,75.07
2022-10-08T03:42:01.087Z,79.22
2022-10-08T03:44:28.616Z,96.57
2022-10-08T03:46:56.127Z,91.85
2022-10-08T03:49:25.330Z,85.65
2022-10-08T03:51:52.855Z,90.00
2022-10-08T03:54:20.392Z,95.18
2022-10-08T03:56:48.108Z,90.80
2022-10-08T03:59:15.786Z,74.10
2022-10-08T04:01:43.353Z,85.45
2022-10-08T04:04:10.996Z,81.05
2022-10-08T04:06:39.864Z,88.65
2022-10-08T04:09:07.378Z,87.43
2022-10-08T04:11:34.913Z,93.43
2022-10-08T04:14:02.495Z,103.30
2022-10-08T04:16:30.008Z,99.70
2022-10-08T04:18:57.552Z,95.68
2022-10-08T04:21:25.089Z,99.65
2022-10-08T04:23:53.920Z,82.10
2022-10-08T04:26:21.410Z,79.32
2022-10-08T04:28:49.047Z,89.15
2022-10-08T04:31:18.869Z,87.63
2022-10-08T04:33:47.650Z,95.00
2022-10-08T04:36:16.740Z,87.00
2022-10-08T04:38:44.847Z,77.55
2022-10-08T04:41:15.080Z,89.03
2022-10-08T04:43:44.019Z,76.07
2022-10-08T04:46:13.226Z,82.55
2022-10-08T04:48:41.603Z,86.70
2022-10-08T04:51:10.822Z,84.22
2022-10-08T04:53:39.324Z,76.07
2022-10-08T04:56:14.252Z,84.78
2022-10-08T04:58:42.434Z,89.78
2022-10-08T05:01:12.831Z,69.43
2022-10-08T05:03:41.809Z,71.30
2022-10-08T05:06:10.149Z,92.45
2022-10-08T05:08:38.901Z,70.85
2022-10-08T05:11:06.523Z,82.20
2022-10-08T05:13:36.075Z,80.05
2022-10-08T05:16:05.744Z,76.40
2022-10-08T05:18:33.691Z,87.28
2022-10-08T05:21:04.152Z,78.13
2022-10-08T05:23:33.063Z,77.05
2022-10-08T05:26:02.234Z,69.88
2022-10-08T05:28:30.879Z,79.60
2022-10-08T05:31:02.977Z,85.75
2022-10-08T05:33:30.527Z,84.07
2022-10-08T05:35:58.047Z,82.68
2022-10-08T05:38:25.577Z,87.15
2022-10-08T05:40:53.075Z,110.20
2022-10-08T05:43:20.581Z,102.90
2022-10-08T05:45:52.063Z,94.93
2022-10-08T05:48:20.911Z,112.18
2022-10-08T05:50:48.423Z,96.07
2022-10-08T05:53:15.933Z,99.30
2022-10-08T05:55:43.447Z,80.28
2022-10-08T05:58:10.930Z,93.50
2022-10-08T06:00:38.503Z,85.25
2022-10-08T06:03:06.118Z,84.45
2022-10-08T06:05:35.066Z,88.50
2022-10-08T06:08:02.572Z,86.05
2022-10-08T06:10:31.934Z,77.13
2022-10-08T06:12:59.436Z,92.30
2022-10-08T06:15:26.948Z,84.85
2022-10-08T06:17:54.449Z,86.20
2022-10-08T06:20:21.950Z,83.47
2022-10-08T06:22:50.955Z,93.40
2022-10-08T06:25:18.536Z,88.53
2022-10-08T06:27:46.031Z,95.05
2022-10-08T06:30:14.087Z,93.63
2022-10-08T06:32:41.609Z,86.05
2022-10-08T06:35:09.446Z,96.10
2022-10-08T06:37:36.943Z,94.97
2022-10-08T06:40:06.247Z,95.20
2022-10-08T06:42:33.769Z,95.07
2022-10-08T06:45:02.350Z,115.90
2022-10-08T06:47:30.284Z,77.95
2022-10-08T06:49:57.805Z,94.63
2022-10-08T06:52:25.350Z,95.05
2022-10-08T06:54:52.849Z,96.00
2022-10-08T06:57:21.710Z,90.53
2022-10-08T06:59:49.383Z,91.38
2022-10-08T07:02:16.895Z,93.07
2022-10-08T07:04:44.512Z,85.70
2022-10-08T07:07:12.009Z,94.82
2022-10-08T07:09:39.540Z,89.00
2022-10-08T07:12:07.053Z,100.43
2022-10-08T07:14:35.916Z,97.50
2022-10-08T07:17:03.415Z,91.95
2022-10-08T07:19:30.928Z,89.18
2022-10-08T07:22:01.342Z,80.13
2022-10-08T07:24:29.201Z,79.88
2022-10-08T07:26:56.865Z,83.90
2022-10-08T07:29:26.190Z,64.25
2022-10-08T07:31:55.139Z,57.42
2022-10-08T07:34:22.785Z,52.33
2022-10-08T07:36:50.280Z,58.20
2022-10-08T07:39:19.787Z,50.55
2022-10-08T07:41:48.311Z,51.30
2022-10-08T07:44:16.676Z,58.90
2022-10-08T07:46:46.115Z,51.20
2022-10-08T07:49:16.096Z,56.08
2022-10-08T07:51:44.260Z,65.30
2022-10-08T07:54:15.557Z,58.03
2022-10-08T07:56:43.229Z,58.47
2022-10-08T07:59:14.833Z,55.58
2022-10-08T08:01:43.434Z,61.05
2022-10-08T08:04:12.223Z,54.15
2022-10-08T08:06:43.276Z,49.30
2022-10-08T08:09:11.976Z,46.50
2022-10-08T08:11:40.226Z,51.60
2022-10-08T08:14:08.108Z,44.78
2022-10-08T08:16:35.982Z,55.45
2022-10-08T08:19:04.217Z,53.22
2022-10-08T08:21:33.308Z,49.55
2022-10-08T08:24:05.890Z,52.20
2022-10-08T08:26:36.780Z,53.92
2022-10-08T08:29:06.973Z,64.70
2022-10-08T08:31:36.084Z,46.03
2022-10-08T08:34:05.563Z,53.95
2022-10-08T08:36:35.794Z,58.03
2022-10-08T08:39:05.848Z,66.95
2022-10-08T08:41:52.957Z,60.85
2022-10-08T08:44:23.264Z,51.92
2022-10-08T08:46:57.418Z,39.85
2022-10-08T08:49:29.344Z,45.17
2022-10-08T08:51:59.233Z,38.65
2022-10-08T08:54:28.382Z,40.05
2022-10-08T08:56:56.320Z,55.03
2022-10-08T08:59:32.499Z,47.95
2022-10-08T09:02:04.661Z,39.58
2022-10-08T09:04:45.053Z,50.05
2022-10-08T09:07:18.019Z,61.17
2022-10-08T09:09:50.230Z,39.80
2022-10-08T09:12:21.221Z,42.38
2022-10-08T09:14:52.977Z,46.45
2022-10-08T09:17:23.361Z,34.55
2022-10-08T09:19:51.398Z,37.50
2022-10-08T09:22:22.933Z,48.08
2022-10-08T09:24:55.709Z,35.00
2022-10-08T09:27:23.310Z,32.65
2022-10-08T09:29:50.843Z,61.50
2022-10-08T09:32:21.120Z,50.65
2022-10-08T09:34:49.213Z,43.45
2022-10-08T09:37:22.153Z,48.88
2022-10-08T09:40:21.214Z,47.13
2022-10-08T09:43:11.859Z,48.13
2022-10-08T09:45:43.799Z,46.53
2022-10-08T09:48:22.811Z,45.72
2022-10-08T09:50:54.978Z,52.15
2022-10-08T09:53:25.690Z,51.42
2022-10-08T09:55:58.232Z,17.63
2022-10-08T09:58:25.960Z,19.25
2022-10-08T10:01:03.741Z,30.33
2022-10-08T10:03:32.623Z,19.30
2022-10-08T10:06:01.491Z,44.40
2022-10-08T10:08:45.849Z,65.55
2022-10-08T10:11:21.387Z,34.78
2022-10-08T10:13:50.907Z,36.88
2022-10-08T10:16:23.572Z,19.17
2022-10-08T10:18:58.088Z,21.27
2022-10-08T10:21:35.440Z,17.85
2022-10-08T10:24:23.749Z,30.83
2022-10-08T10:26:56.834Z,41.30
2022-10-08T10:29:30.183Z,14.73
2022-10-08T10:32:03.623Z,15.23
2022-10-08T10:34:37.043Z,20.77
2022-10-08T10:37:11.439Z,12.85
2022-10-08T10:39:44.434Z,10.45
2022-10-08T10:42:18.467Z,12.98
2022-10-08T10:44:53.291Z,12.40
2022-10-08T10:47:27.113Z,8.60
2022-10-08T10:49:57.917Z,10.57
2022-10-08T10:52:37.334Z,12.77
2022-10-08T10:55:32.571Z,9.05
2022-10-08T10:58:18.608Z,6.65
2022-10-08T11:00:56.227Z,9.60
2022-10-08T11:03:31.944Z,8.80
2022-10-08T11:06:27.925Z,10.68
2022-10-08T11:09:00.542Z,8.15
2022-10-08T11:11:37.270Z,8.95
2022-10-08T11:14:23.271Z,7.95
2022-10-08T11:17:03.759Z,7.68
2022-10-08T11:19:40.099Z,8.48
2022-10-08T11:22:18.211Z,7.00
2022-10-08T11:25:01.944Z,7.85
2022-10-08T11:27:40.092Z,8.02
2022-10-08T11:30:14.150Z,9.52
2022-10-08T11:32:43.752Z,9.70
2022-10-08T11:35:24.644Z,11.75
2022-10-08T11:38:02.691Z,7.57
2022-10-08T11:40:35.921Z,11.82
2022-10-08T11:43:08.327Z,7.13
2022-10-08T11:45:39.879Z,7.50
2022-10-08T11:48:32.757Z,7.75
2022-10-08T11:51:31.172Z,6.97
2022-10-08T11:54:05.808Z,7.70
2022-10-08T11:56:35.841Z,8.63
2022-10-08T11:59:11.057Z,7.55
2022-10-08T12:01:53.267Z,7.75
2022-10-08T12:04:23.785Z,7.28
2022-10-08T12:07:03.844Z,8.15
2022-10-08T12:10:22.581Z,9.13
2022-10-08T12:13:28.683Z,7.65
2022-10-08T12:16:06.686Z,7.68
2022-10-08T12:18:54.103Z,8.57
2022-10-08T12:21:55.160Z,8.30
2022-10-08T12:24:58.249Z,7.50
2022-10-08T12:27:39.871Z,7.43
2022-10-08T12:30:10.542Z,7.32
2022-10-08T12:32:57.892Z,8.07
2022-10-08T12:35:32.790Z,8.00
2022-10-08T12:38:22.746Z,9.10
2022-10-08T12:41:00.196Z,6.97
2022-10-08T12:43:37.856Z,6.78
2022-10-08T12:46:18.482Z,6.28
2022-10-08T12:48:52.088Z,6.60
2022-10-08T12:51:27.352Z,6.25
2022-10-08T12:53:55.056Z,7.07
2022-10-08T12:56:26.195Z,6.35
2022-10-08T12:58:56.807Z,6.07
2022-10-08T13:01:26.071Z,6.18
2022-10-08T13:04:10.693Z,6.13
2022-10-08T13:06:39.610Z,7.20
2022-10-08T13:09:26.619Z,6.72
2022-10-08T13:11:58.297Z,6.20
2022-10-08T13:14:30.753Z,6.28
2022-10-08T13:16:58.795Z,6.43
2022-10-08T13:19:31.892Z,6.55
2022-10-08T13:22:02.933Z,8.10
2022-10-08T13:24:33.995Z,8.05
2022-10-08T13:27:01.632Z,7.93
2022-10-08T13:29:32.473Z,9.70
2022-10-08T13:32:02.126Z,7.35
2022-10-08T13:34:32.059Z,9.75
2022-10-08T13:37:03.588Z,8.50
2022-10-08T13:39:34.590Z,8.63
2022-10-08T13:42:04.867Z,8.98
2022-10-08T13:44:34.488Z,7.22
2022-10-08T13:47:03.858Z,8.20
2022-10-08T13:49:33.764Z,6.13
2022-10-08T13:52:02.953Z,7.47
2022-10-08T13:54:33.265Z,7.15
2022-10-08T13:57:01.215Z,6.63
2022-10-08T13:59:30.900Z,6.22
2022-10-08T14:01:58.716Z,5.85
2022-10-08T14:04:26.924Z,7.40
2022-10-08T14:06:57.264Z,6.00
2022-10-08T14:09:28.927Z,6.93
2022-10-08T14:11:59.265Z,5.70
2022-10-08T14:14:28.435Z,5.72
2022-10-08T14:16:55.963Z,7.72
2022-10-08T14:19:23.500Z,5.93
2022-10-08T14:21:55.069Z,7.38
2022-10-08T14:24:22.580Z,7.28
2022-10-08T14:26:51.427Z,6.22
2022-10-08T14:29:19.061Z,5.63
2022-10-08T14:31:46.641Z,5.68
2022-10-08T14:34:14.238Z,6.57
2022-10-08T14:36:42.790Z,6.78
2022-10-08T14:39:11.011Z,8.20
2022-10-08T14:41:40.683Z,6.15
2022-10-08T14:44:09.589Z,5.75
2022-10-08T14:46:37.103Z,6.68
2022-10-08T14:49:05.284Z,7.00
2022-10-08T14:51:38.402Z,6.25
2022-10-08T14:54:06.980Z,6.55
2022-10-08T14:56:34.662Z,6.07
2022-10-08T14:59:02.204Z,6.13
2022-10-08T15:01:31.410Z,7.32
2022-10-08T15:03:59.038Z,7.03
2022-10-08T15:06:26.583Z,6.82
2022-10-08T15:08:54.183Z,5.90
2022-10-08T15:11:21.717Z,6.15
2022-10-08T15:13:49.248Z,5.18
2022-10-08T15:16:16.854Z,5.78
2022-10-08T15:18:45.779Z,6.47
2022-10-08T15:21:13.277Z,6.82
2022-10-08T15:23:40.763Z,6.70
2022-10-08T15:26:14.614Z,6.70
2022-10-08T15:28:43.130Z,7.55
2022-10-08T15:31:13.752Z,5.22
2022-10-08T15:33:42.611Z,10.65
2022-10-08T15:36:20.173Z,7.97
2022-10-08T15:38:49.102Z,8.23
2022-10-08T15:41:17.423Z,10.15
2022-10-08T15:43:45.503Z,6.47
2022-10-08T15:46:15.743Z,5.82
2022-10-08T15:48:43.455Z,5.30
2022-10-08T15:51:11.035Z,5.55
2022-10-08T15:53:40.141Z,6.25
2022-10-08T15:56:07.684Z,6.03
2022-10-08T15:58:49.944Z,5.95
2022-10-08T16:01:19.903Z,9.15
2022-10-08T16:03:49.129Z,10.75
2022-10-08T16:06:18.613Z,8.63
2022-10-08T16:08:47.780Z,10.85
2022-10-08T16:11:18.393Z,9.25
2022-10-08T16:13:50.177Z,9.90
2022-10-08T16:16:17.896Z,12.52
2022-10-08T16:18:46.919Z,12.20
2022-10-08T16:21:14.957Z,10.07
2022-10-08T16:23:42.504Z,7.68
2022-10-08T16:26:13.757Z,8.70
2022-10-08T16:28:42.056Z,7.32
2022-10-08T16:31:11.321Z,7.70
2022-10-08T16:33:39.259Z,8.38
2022-10-08T16:36:08.894Z,11.23
2022-10-08T16:38:37.871Z,8.68
2022-10-08T16:41:15.136Z,10.25
2022-10-08T16:43:46.041Z,9.18
2022-10-08T16:46:15.413Z,13.13
2022-10-08T16:48:43.608Z,23.10
2022-10-08T16:51:12.043Z,18.08
2022-10-08T16:53:40.303Z,39.72
2022-10-08T16:56:07.857Z,36.88
2022-10-08T16:58:36.708Z,42.30
2022-10-08T17:01:08.715Z,30.63
2022-10-08T17:03:36.664Z,29.85
2022-10-08T17:06:04.903Z,19.55
2022-10-08T17:08:32.425Z,13.13
2022-10-08T17:11:04.676Z,11.60
2022-10-08T17:13:32.394Z,56.35
2022-10-08T17:16:02.831Z,92.07
2022-10-08T17:18:32.225Z,82.00
2022-10-08T17:21:03.105Z,80.75
2022-10-08T17:23:35.975Z,38.42
2022-10-08T17:26:06.336Z,31.58
2022-10-08T17:28:36.327Z,28.95
2022-10-08T17:31:07.229Z,31.58
2022-10-08T17:33:36.297Z,48.63
2022-10-08T17:36:06.736Z,47.20
2022-10-08T17:38:35.054Z,48.80
2022-10-08T17:41:09.634Z,40.67
2022-10-08T17:43:37.133Z,33.28
2022-10-08T17:46:10.403Z,35.67
2022-10-08T17:48:38.259Z,35.97
2022-10-08T17:51:06.995Z,46.00
2022-10-08T17:53:34.956Z,35.25
2022-10-08T17:56:04.801Z,33.42
2022-10-08T17:58:32.403Z,32.63
2022-10-08T18:01:08.807Z,32.53
2022-10-08T18:03:38.829Z,41.47
2022-10-08T18:06:07.341Z,42.03
2022-10-08T18:08:35.044Z,53.33
2022-10-08T18:11:03.503Z,51.30
2022-10-08T18:13:31.377Z,35.47
2022-10-08T18:16:03.456Z,36.53
2022-10-08T18:18:31.107Z,52.73
2022-10-08T18:21:01.608Z,70.25
2022-10-08T18:23:30.172Z,61.92
2022-10-08T18:26:07.930Z,59.58
2022-10-08T18:28:36.073Z,59.17
2022-10-08T18:31:05.091Z,40.83
2022-10-08T18:33:32.984Z,65.93
2022-10-08T18:36:09.880Z,78.43
2022-10-08T18:38:37.428Z,41.90
2022-10-08T18:41:15.321Z,77.20
2022-10-08T18:43:43.208Z,49.37
2022-10-08T18:46:11.167Z,74.28
2022-10-08T18:48:39.100Z,77.40
2022-10-08T18:51:10.064Z,74.53
2022-10-08T18:53:39.379Z,40.78
2022-10-08T18:56:10.283Z,39.10
2022-10-08T18:58:38.066Z,49.13
2022-10-08T19:01:07.005Z,66.53
2022-10-08T19:03:34.591Z,47.95
2022-10-08T19:06:02.108Z,76.07
2022-10-08T19:08:31.168Z,34.30
2022-10-08T19:10:58.682Z,53.28
2022-10-08T19:13:26.184Z,64.07
2022-10-08T19:15:53.748Z,58.55
2022-10-08T19:18:21.281Z,58.55
2022-10-08T19:20:48.787Z,47.13
2022-10-08T19:23:16.304Z,56.90
2022-10-08T19:25:45.166Z,57.60
2022-10-08T19:28:12.690Z,64.93
2022-10-08T19:30:40.201Z,53.88
2022-10-08T19:33:07.699Z,36.65
2022-10-08T19:35:35.245Z,57.67
2022-10-08T19:38:02.788Z,37.70
2022-10-08T19:40:30.309Z,43.47
2022-10-08T19:42:59.158Z,46.50
2022-10-08T19:45:26.686Z,53.85
2022-10-08T19:47:54.176Z,60.13
2022-10-08T19:50:21.718Z,49.40
2022-10-08T19:52:51.867Z,70.07
2022-10-08T19:55:19.639Z,46.80
2022-10-08T19:57:47.149Z,102.70
2022-10-08T20:00:16.780Z,60.23
2022-10-08T20:02:44.311Z,32.70
2022-10-08T20:05:11.825Z,45.43
2022-10-08T20:07:39.836Z,28.80
2022-10-08T20:10:08.265Z,32.13
2022-10-08T20:12:35.768Z,41.50
2022-10-08T20:15:03.307Z,58.03
2022-10-08T20:17:32.183Z,45.73
2022-10-08T20:20:20.571Z,77.13
2022-10-08T20:22:47.538Z,53.37
2022-10-08T20:25:18.997Z,50.80
2022-10-08T20:27:46.506Z,27.80
2022-10-08T20:30:14.972Z,27.90
2022-10-08T20:32:43.827Z,33.30
2022-10-08T20:35:11.319Z,34.70
2022-10-08T20:37:38.852Z,23.33
2022-10-08T20:40:07.299Z,25.20
2022-10-08T20:42:34.816Z,24.90
2022-10-08T20:45:02.444Z,26.07
2022-10-08T20:47:29.953Z,33.83
2022-10-08T20:49:58.806Z,31.87
2022-10-08T20:52:26.329Z,21.90
2022-10-08T20:54:53.841Z,30.13
2022-10-08T20:57:21.346Z,32.43
2022-10-08T20:59:48.880Z,33.80
2022-10-08T21:02:19.604Z,27.43
2022-10-08T21:04:47.551Z,26.43
2022-10-08T21:07:16.388Z,32.43
2022-10-08T21:09:43.944Z,51.63
2022-10-08T21:12:11.453Z,42.57
2022-10-08T21:14:38.989Z,37.30
2022-10-08T21:17:06.499Z,34.77
2022-10-08T21:19:34.002Z,36.07
2022-10-08T21:22:01.532Z,33.83
2022-10-08T21:24:30.441Z,29.37
2022-10-08T21:26:58.053Z,29.90
2022-10-08T21:29:25.543Z,32.37
2022-10-08T21:31:53.121Z,32.50
2022-10-08T21:34:20.933Z,28.67
2022-10-08T21:36:49.972Z,28.13
2022-10-08T21:39:18.253Z,28.80
2022-10-08T21:41:47.389Z,28.27
2022-10-08T21:44:15.754Z,23.20
2022-10-08T21:46:43.327Z,24.23
2022-10-08T21:49:13.912Z,28.83
2022-10-08T21:51:41.628Z,26.13
2022-10-08T21:54:11.102Z,17.70
2022-10-08T21:56:41.193Z,24.70
2022-10-08T21:59:13.367Z,22.20
2022-10-08T22:01:42.687Z,20.20
2022-10-08T22:04:12.174Z,16.77
2022-10-08T22:06:41.760Z,19.77
2022-10-08T22:09:11.597Z,21.93
2022-10-08T22:11:39.469Z,25.93
2022-10-08T22:14:07.261Z,23.60
2022-10-08T22:16:36.306Z,16.97
2022-10-08T22:19:04.406Z,22.43
2022-10-08T22:21:32.355Z,22.50
2022-10-08T22:23:59.984Z,21.43
2022-10-08T22:26:30.118Z,19.90
2022-10-08T22:28:58.564Z,15.47
2022-10-08T22:31:27.021Z,22.67
2022-10-08T22:33:56.458Z,20.13
2022-10-08T22:36:26.266Z,24.30
2022-10-08T22:38:54.441Z,24.00
2022-10-08T22:41:23.571Z,21.63
2022-10-08T22:43:51.617Z,24.93
2022-10-08T22:46:21.905Z,23.50
2022-10-08T22:48:49.783Z,24.20
2022-10-08T22:51:20.148Z,21.93
2022-10-08T22:53:47.968Z,31.80
2022-10-08T22:56:18.601Z,25.63
2022-10-08T22:58:46.660Z,22.93
2022-10-08T23:01:15.672Z,21.57
2022-10-08T23:03:43.494Z,21.53
2022-10-08T23:06:15.474Z,22.33
2022-10-08T23:08:45.964Z,21.67
2022-10-08T23:11:14.112Z,29.63
2022-10-08T23:13:45.386Z,29.57
2022-10-08T23:16:14.970Z,29.10
2022-10-08T23:18:45.744Z,23.47
2022-10-08T23:21:15.793Z,24.93
2022-10-08T23:23:45.883Z,21.97
2022-10-08T23:26:14.434Z,21.13
2022-10-08T23:28:42.789Z,20.87
2022-10-08T23:31:12.613Z,24.30
2022-10-08T23:33:42.085Z,25.80
2022-10-08T23:36:10.656Z,28.77
2022-10-08T23:38:38.474Z,40.90
2022-10-08T23:41:09.241Z,44.43
2022-10-08T23:43:38.267Z,41.10
2022-10-08T23:46:07.628Z,40.80
2022-10-08T23:48:35.619Z,41.47
2022-10-08T23:51:04.292Z,44.27
2022-10-08T23:53:32.451Z,34.90
2022-10-08T23:56:00.545Z,42.83
2022-10-08T23:58:29.438Z,45.67
